createdAt,value
2024-05-09T00:00:49.050Z,101212.53
2024-05-09T00:03:40.243Z,101211.20
2024-05-09T00:06:10.193Z,101211.79
2024-05-09T00:08:39.711Z,101214.05
2024-05-09T00:11:08.846Z,101217.73
2024-05-09T00:13:37.877Z,101217.79
2024-05-09T00:16:07.523Z,101224.64
2024-05-09T00:18:36.444Z,101224.75
2024-05-09T00:21:06.968Z,101222.20
2024-05-09T00:23:36.099Z,101220.19
2024-05-09T00:26:05.867Z,101219.77
2024-05-09T00:28:34.776Z,101216.38
2024-05-09T00:31:04.214Z,101213.33
2024-05-09T00:33:33.521Z,101214.11
2024-05-09T00:36:02.727Z,101210.32
2024-05-09T00:38:31.845Z,101211.86
2024-05-09T00:41:00.917Z,101209.77
2024-05-09T00:43:32.003Z,101206.50
2024-05-09T00:46:01.441Z,101206.64
2024-05-09T00:48:31.166Z,101212.39
2024-05-09T00:51:01.766Z,101214.02
2024-05-09T00:53:33.622Z,101217.29
2024-05-09T00:56:05.229Z,101213.85
2024-05-09T00:58:34.414Z,101215.10
2024-05-09T01:01:04.099Z,101212.18
2024-05-09T01:03:33.817Z,101215.14
2024-05-09T01:06:03.275Z,101212.95
2024-05-09T01:08:32.279Z,101209.94
2024-05-09T01:11:01.586Z,101211.55
2024-05-09T01:13:30.911Z,101215.12
2024-05-09T01:16:00.427Z,101216.04
2024-05-09T01:18:30.051Z,101213.27
2024-05-09T01:20:59.133Z,101215.70
2024-05-09T01:23:28.007Z,101216.02
2024-05-09T01:25:56.994Z,101214.55
2024-05-09T01:28:26.019Z,101217.73
2024-05-09T01:30:55.067Z,101217.94
2024-05-09T01:33:24.076Z,101212.45
2024-05-09T01:35:53.346Z,101215.55
2024-05-09T01:38:22.200Z,101216.90
2024-05-09T01:40:51.494Z,101215.16
2024-05-09T01:43:20.449Z,101217.67
2024-05-09T01:45:49.363Z,101219.30
2024-05-09T01:48:18.466Z,101220.33
2024-05-09T01:50:47.544Z,101221.77
2024-05-09T01:53:16.807Z,101218.40
2024-05-09T01:55:45.825Z,101221.74
2024-05-09T01:58:14.883Z,101220.55
2024-05-09T02:00:44.020Z,101223.54
2024-05-09T02:03:16.342Z,101218.75
2024-05-09T02:05:49.286Z,101217.33
2024-05-09T02:08:19.886Z,101213.65
2024-05-09T02:10:50.510Z,101215.80
2024-05-09T02:13:20.106Z,101217.81
2024-05-09T02:15:51.492Z,101218.30
2024-05-09T02:18:20.484Z,101220.23
2024-05-09T02:20:49.708Z,101226.46
2024-05-09T02:23:19.512Z,101226.04
2024-05-09T02:25:48.512Z,101229.52
2024-05-09T02:28:17.493Z,101231.52
2024-05-09T02:30:46.439Z,101229.65
2024-05-09T02:33:15.464Z,101231.23
2024-05-09T02:35:44.797Z,101231.60
2024-05-09T02:38:13.893Z,101234.46
2024-05-09T02:40:42.810Z,101234.02
2024-05-09T02:43:13.123Z,101230.46
2024-05-09T02:45:42.484Z,101235.42
2024-05-09T02:48:13.374Z,101238.48
2024-05-09T02:50:43.411Z,101243.08
2024-05-09T02:53:13.244Z,101243.49
2024-05-09T02:55:43.254Z,101244.45
2024-05-09T02:58:12.559Z,101243.98
2024-05-09T03:00:42.782Z,101244.02
2024-05-09T03:03:14.481Z,101239.46
2024-05-09T03:05:45.703Z,101234.95
2024-05-09T03:08:15.067Z,101237.52
2024-05-09T03:10:44.224Z,101239.67
2024-05-09T03:13:15.381Z,101234.98
2024-05-09T03:15:45.819Z,101234.80
2024-05-09T03:18:15.772Z,101231.67
2024-05-09T03:20:45.027Z,101228.81
2024-05-09T03:23:14.214Z,101230.96
2024-05-09T03:25:43.264Z,101228.59
2024-05-09T03:28:12.495Z,101228.52
2024-05-09T03:30:43.132Z,101221.93
2024-05-09T03:33:16.263Z,101224.91
2024-05-09T03:35:45.650Z,101222.33
2024-05-09T03:38:14.860Z,101227.98
2024-05-09T03:40:48.037Z,101227.00
2024-05-09T03:43:17.667Z,101230.05
2024-05-09T03:45:49.423Z,101230.42
2024-05-09T03:48:18.416Z,101230.36
2024-05-09T03:50:48.093Z,101230.33
2024-05-09T03:53:17.235Z,101227.45
2024-05-09T03:55:49.385Z,101227.96
2024-05-09T03:58:18.395Z,101230.66
2024-05-09T04:00:47.254Z,101229.61
2024-05-09T04:03:16.955Z,101232.05
2024-05-09T04:05:46.261Z,101229.42
2024-05-09T04:08:16.084Z,101227.96
2024-05-09T04:10:45.431Z,101230.63
2024-05-09T04:13:14.244Z,101227.39
2024-05-09T04:15:43.309Z,101229.67
2024-05-09T04:18:12.744Z,101232.28
2024-05-09T04:20:41.990Z,101228.83
2024-05-09T04:23:13.721Z,101228.12
2024-05-09T04:25:45.610Z,101226.48
2024-05-09T04:28:15.094Z,101227.45
2024-05-09T04:30:44.018Z,101230.92
2024-05-09T04:33:15.746Z,101231.08
2024-05-09T04:35:45.378Z,101231.29
2024-05-09T04:38:15.482Z,101233.66
2024-05-09T04:40:44.900Z,101237.31
2024-05-09T04:43:19.064Z,101234.27
2024-05-09T04:45:48.234Z,101235.90
2024-05-09T04:48:17.423Z,101238.80
2024-05-09T04:50:46.396Z,101240.23
2024-05-09T04:53:17.520Z,101241.54
2024-05-09T04:55:46.779Z,101241.39
2024-05-09T04:58:15.892Z,101242.61
2024-05-09T05:00:44.927Z,101243.26
2024-05-09T05:03:16.124Z,101242.64
2024-05-09T05:05:47.878Z,101246.08
2024-05-09T05:08:18.627Z,101246.95
2024-05-09T05:10:49.310Z,101248.16
2024-05-09T05:13:23.300Z,101244.95
2024-05-09T05:15:55.206Z,101246.51
2024-05-09T05:18:25.050Z,101246.30
2024-05-09T05:20:54.586Z,101247.65
2024-05-09T05:23:23.739Z,101246.48
2024-05-09T05:25:56.160Z,101246.96
2024-05-09T05:28:25.275Z,101247.59
2024-05-09T05:30:54.169Z,101245.41
2024-05-09T05:33:23.666Z,101246.23
2024-05-09T05:35:53.094Z,101242.48
2024-05-09T05:38:26.061Z,101239.58
2024-05-09T05:40:56.956Z,101240.83
2024-05-09T05:43:26.372Z,101237.77
2024-05-09T05:45:55.250Z,101240.98
2024-05-09T05:48:24.278Z,101235.58
2024-05-09T05:50:53.189Z,101236.60
2024-05-09T05:53:22.100Z,101236.20
2024-05-09T05:55:51.301Z,101231.09
2024-05-09T05:58:20.902Z,101237.11
2024-05-09T06:00:52.958Z,101231.63
2024-05-09T06:03:22.043Z,101233.73
2024-05-09T06:05:51.545Z,101233.67
2024-05-09T06:08:21.018Z,101229.45
2024-05-09T06:10:49.938Z,101232.27
2024-05-09T06:13:19.851Z,101228.39
2024-05-09T06:15:48.945Z,101232.98
2024-05-09T06:18:18.253Z,101238.16
2024-05-09T06:20:47.687Z,101232.77
2024-05-09T06:23:16.726Z,101233.32
2024-05-09T06:25:45.772Z,101236.60
2024-05-09T06:28:14.681Z,101235.94
2024-05-09T06:30:43.648Z,101239.33
2024-05-09T06:33:14.771Z,101229.98
2024-05-09T06:35:47.099Z,101232.98
2024-05-09T06:38:16.201Z,101232.67
2024-05-09T06:40:45.271Z,101234.08
2024-05-09T06:43:15.434Z,101230.84
2024-05-09T06:45:46.532Z,101231.73
2024-05-09T06:48:17.355Z,101234.88
2024-05-09T06:50:46.549Z,101233.58
2024-05-09T06:53:16.489Z,101234.90
2024-05-09T06:55:45.486Z,101229.78
2024-05-09T06:58:14.636Z,101229.50
2024-05-09T07:00:43.885Z,101224.56
2024-05-09T07:03:16.535Z,101221.65
2024-05-09T07:05:49.146Z,101219.16
2024-05-09T07:08:19.371Z,101218.55
2024-05-09T07:10:48.585Z,101213.88
2024-05-09T07:13:17.686Z,101216.94
2024-05-09T07:15:46.736Z,101217.64
2024-05-09T07:18:18.370Z,101210.14
2024-05-09T07:20:49.371Z,101206.64
2024-05-09T07:23:19.214Z,101198.33
2024-05-09T07:25:48.510Z,101198.04
2024-05-09T07:28:20.087Z,101189.85
2024-05-09T07:30:48.949Z,101193.44
2024-05-09T07:33:18.672Z,101191.81
2024-05-09T07:35:48.402Z,101192.05
2024-05-09T07:38:17.568Z,101193.81
2024-05-09T07:40:46.777Z,101191.41
2024-05-09T07:43:15.996Z,101187.77
2024-05-09T07:45:52.273Z,101187.30
2024-05-09T07:52:39.265Z,101184.26
2024-05-09T07:53:49.727Z,101185.46
2024-05-09T07:56:23.163Z,101185.15
2024-05-09T07:58:53.308Z,101185.08
2024-05-09T08:01:24.885Z,101185.03
2024-05-09T08:03:54.543Z,101181.96
2024-05-09T08:06:23.808Z,101178.48
2024-05-09T08:08:52.645Z,101174.05
2024-05-09T08:11:22.646Z,101175.73
2024-05-09T08:13:51.734Z,101171.55
2024-05-09T08:16:20.753Z,101174.05
2024-05-09T08:18:50.655Z,101170.38
2024-05-09T08:21:19.423Z,101171.30
2024-05-09T08:23:48.481Z,101171.73
2024-05-09T08:26:17.392Z,101172.19
2024-05-09T08:28:46.362Z,101173.55
2024-05-09T08:31:15.732Z,101172.10
2024-05-09T08:33:46.236Z,101172.85
2024-05-09T08:36:16.377Z,101170.19
2024-05-09T08:38:45.262Z,101168.92
2024-05-09T08:41:15.155Z,101169.63
2024-05-09T08:43:45.841Z,101169.46
2024-05-09T08:46:17.795Z,101170.95
2024-05-09T08:48:47.958Z,101173.66
2024-05-09T08:51:17.280Z,101174.06
2024-05-09T08:53:46.447Z,101171.48
2024-05-09T08:56:16.164Z,101171.39
2024-05-09T08:58:45.788Z,101169.19
2024-05-09T09:01:15.945Z,101167.73
2024-05-09T09:03:46.086Z,101162.73
2024-05-09T09:06:17.877Z,101167.65
2024-05-09T09:08:47.215Z,101166.50
2024-05-09T09:11:16.035Z,101163.91
2024-05-09T09:13:45.129Z,101170.02
2024-05-09T09:16:15.610Z,101161.27
2024-05-09T09:18:46.285Z,101166.63
2024-05-09T09:21:15.550Z,101163.17
2024-05-09T09:23:44.456Z,101159.96
2024-05-09T09:26:16.913Z,101156.84
2024-05-09T09:28:46.774Z,101153.39
2024-05-09T09:31:19.170Z,101154.42
2024-05-09T09:33:48.547Z,101151.23
2024-05-09T09:36:18.392Z,101141.73
2024-05-09T09:38:47.950Z,101143.98
2024-05-09T09:41:19.584Z,101143.63
2024-05-09T09:43:49.250Z,101138.99
2024-05-09T09:46:19.201Z,101138.05
2024-05-09T09:48:49.123Z,101134.41
2024-05-09T09:51:18.632Z,101136.74
2024-05-09T09:53:48.785Z,101127.27
2024-05-09T09:56:18.262Z,101124.46
2024-05-09T09:58:47.987Z,101120.70
2024-05-09T10:01:17.046Z,101119.79
2024-05-09T10:03:46.568Z,101118.10
2024-05-09T10:06:17.635Z,101115.95
2024-05-09T10:08:48.098Z,101116.83
2024-05-09T10:11:21.309Z,101117.50
2024-05-09T10:13:52.896Z,101118.80
2024-05-09T10:16:22.313Z,101118.95
2024-05-09T10:18:51.526Z,101116.14
2024-05-09T10:21:21.236Z,101114.77
2024-05-09T10:24:00.160Z,101117.23
2024-05-09T10:26:33.608Z,101118.73
2024-05-09T10:29:11.878Z,101119.09
2024-05-09T10:31:42.876Z,101120.56
2024-05-09T10:34:18.387Z,101122.08
2024-05-09T10:36:51.080Z,101120.96
2024-05-09T10:39:21.389Z,101121.84
2024-05-09T10:41:50.486Z,101118.11
2024-05-09T10:44:21.107Z,101113.77
2024-05-09T10:46:50.030Z,101118.75
2024-05-09T10:49:19.004Z,101116.77
2024-05-09T10:51:49.846Z,101118.05
2024-05-09T10:54:18.663Z,101116.02
2024-05-09T10:56:56.878Z,101113.08
2024-05-09T10:59:32.029Z,101107.16
2024-05-09T11:02:04.378Z,101104.31
2024-05-09T11:04:34.955Z,101100.99
2024-05-09T11:07:08.364Z,101098.52
2024-05-09T11:09:38.277Z,101097.66
2024-05-09T11:12:08.332Z,101095.13
2024-05-09T11:14:37.476Z,101091.67
2024-05-09T11:17:07.426Z,101088.37
2024-05-09T11:19:38.527Z,101084.42
2024-05-09T11:22:07.710Z,101077.58
2024-05-09T11:24:36.929Z,101075.38
2024-05-09T11:27:06.449Z,101074.27
2024-05-09T11:29:38.998Z,101078.25
2024-05-09T11:32:10.937Z,101074.05
2024-05-09T11:34:41.421Z,101075.13
2024-05-09T11:37:10.693Z,101070.15
2024-05-09T11:39:39.722Z,101072.81
2024-05-09T11:42:08.791Z,101072.46
2024-05-09T11:44:37.552Z,101065.52
2024-05-09T11:47:06.500Z,101062.88
2024-05-09T11:49:35.391Z,101063.79
2024-05-09T11:52:05.652Z,101062.70
2024-05-09T11:54:34.687Z,101065.90
2024-05-09T11:57:04.153Z,101059.17
2024-05-09T11:59:32.946Z,101057.71
2024-05-09T12:02:02.159Z,101052.80
2024-05-09T12:04:31.534Z,101048.25
2024-05-09T12:07:00.663Z,101051.59
2024-05-09T12:09:29.700Z,101046.96
2024-05-09T12:11:58.765Z,101042.25
2024-05-09T12:14:27.671Z,101041.09
2024-05-09T12:16:58.497Z,101042.41
2024-05-09T12:19:27.399Z,101039.53
2024-05-09T12:21:56.601Z,101039.84
2024-05-09T12:24:28.169Z,101037.56
2024-05-09T12:26:56.995Z,101037.66
2024-05-09T12:29:26.119Z,101030.75
2024-05-09T12:31:54.992Z,101031.92
2024-05-09T12:34:24.001Z,101027.79
2024-05-09T12:36:53.144Z,101029.77
2024-05-09T12:39:22.391Z,101026.05
2024-05-09T12:41:51.417Z,101021.23
2024-05-09T12:44:20.460Z,101018.68
2024-05-09T12:46:49.612Z,101015.79
2024-05-09T12:49:20.080Z,101014.13
2024-05-09T12:51:49.406Z,101013.84
2024-05-09T12:54:18.319Z,101013.87
2024-05-09T12:56:47.063Z,101013.90
2024-05-09T12:59:16.116Z,101012.81
2024-05-09T13:01:45.196Z,101010.98
2024-05-09T13:04:14.447Z,101003.48
2024-05-09T13:06:43.693Z,101002.96
2024-05-09T13:09:12.636Z,100998.55
2024-05-09T13:11:42.177Z,100995.88
2024-05-09T13:14:11.199Z,100990.80
2024-05-09T13:16:40.047Z,100990.70
2024-05-09T13:19:09.227Z,100983.69
2024-05-09T13:21:38.196Z,100978.83
2024-05-09T13:24:07.906Z,100978.90
2024-05-09T13:26:37.018Z,100976.23
2024-05-09T13:29:05.991Z,100974.91
2024-05-09T13:31:34.807Z,100969.23
2024-05-09T13:34:04.150Z,100968.25
2024-05-09T13:36:33.266Z,100968.14
2024-05-09T13:39:03.125Z,100967.42
2024-05-09T13:41:32.256Z,100963.40
2024-05-09T13:44:01.297Z,100968.65
2024-05-09T13:46:30.481Z,100960.81
2024-05-09T13:48:59.707Z,100957.06
2024-05-09T13:51:28.565Z,100958.07
2024-05-09T13:53:58.743Z,100956.00
2024-05-09T13:56:27.726Z,100958.73
2024-05-09T13:58:56.672Z,100951.41
2024-05-09T14:01:26.068Z,100952.99
2024-05-09T14:03:55.334Z,100951.19
2024-05-09T14:06:24.543Z,100944.23
2024-05-09T14:08:53.443Z,100942.45
2024-05-09T14:11:22.418Z,100939.10
2024-05-09T14:13:51.374Z,100937.73
2024-05-09T14:16:20.671Z,100935.05
2024-05-09T14:18:49.854Z,100936.98
2024-05-09T14:21:18.663Z,100936.93
2024-05-09T14:23:47.520Z,100931.14
2024-05-09T14:26:16.741Z,100929.11
2024-05-09T14:28:45.654Z,100921.30
2024-05-09T14:31:14.464Z,100917.60
2024-05-09T14:33:43.359Z,100918.27
2024-05-09T14:36:12.665Z,100912.93
2024-05-09T14:38:41.846Z,100906.88
2024-05-09T14:41:12.655Z,100903.39
2024-05-09T14:43:41.518Z,100898.60
2024-05-09T14:46:10.770Z,100900.43
2024-05-09T14:48:40.258Z,100893.80
2024-05-09T14:51:09.178Z,100888.77
2024-05-09T14:53:38.187Z,100882.19
2024-05-09T14:56:08.897Z,100880.52
2024-05-09T14:58:38.459Z,100875.45
2024-05-09T15:01:07.259Z,100874.33
2024-05-09T15:03:36.226Z,100870.56
2024-05-09T15:06:06.176Z,100865.85
2024-05-09T15:08:35.104Z,100865.74
2024-05-09T15:11:04.280Z,100860.56
2024-05-09T15:13:33.557Z,100857.16
2024-05-09T15:16:04.071Z,100855.39
2024-05-09T15:18:33.543Z,100855.76
2024-05-09T15:21:02.780Z,100851.23
2024-05-09T15:23:32.056Z,100852.77
2024-05-09T15:26:01.081Z,100852.21
2024-05-09T15:28:30.873Z,100851.45
2024-05-09T15:31:00.109Z,100852.26
2024-05-09T15:33:28.990Z,100847.15
2024-05-09T15:35:57.959Z,100845.98
2024-05-09T15:38:26.994Z,100841.09
2024-05-09T15:40:56.312Z,100833.63
2024-05-09T15:43:27.237Z,100831.36
2024-05-09T15:45:56.241Z,100828.74
2024-05-09T15:48:25.660Z,100827.88
2024-05-09T15:50:54.751Z,100827.58
2024-05-09T15:53:23.923Z,100828.29
2024-05-09T15:55:53.039Z,100826.54
2024-05-09T15:58:22.526Z,100826.16
2024-05-09T16:00:52.483Z,100823.70
2024-05-09T16:03:22.020Z,100823.67
2024-05-09T16:05:51.619Z,100818.71
2024-05-09T16:08:20.724Z,100818.05
2024-05-09T16:10:49.896Z,100818.77
2024-05-09T16:13:19.180Z,100814.59
2024-05-09T16:15:48.363Z,100817.15
2024-05-09T16:18:18.009Z,100818.37
2024-05-09T16:20:49.514Z,100819.15
2024-05-09T16:23:19.847Z,100814.66
2024-05-09T16:25:50.771Z,100817.83
2024-05-09T16:28:20.861Z,100818.48
2024-05-09T16:30:51.085Z,100816.88
2024-05-09T16:33:22.947Z,100813.52
2024-05-09T16:35:52.067Z,100814.03
2024-05-09T16:38:20.913Z,100812.98
2024-05-09T16:40:50.291Z,100809.80
2024-05-09T16:43:19.941Z,100810.52
2024-05-09T16:45:49.088Z,100806.23
2024-05-09T16:48:19.140Z,100808.17
2024-05-09T16:50:48.607Z,100808.62
2024-05-09T16:53:18.622Z,100806.02
2024-05-09T16:55:47.798Z,100803.72
2024-05-09T16:58:16.965Z,100807.14
2024-05-09T17:00:46.154Z,100804.35
2024-05-09T17:03:16.077Z,100805.95
2024-05-09T17:05:47.288Z,100806.45
2024-05-09T17:08:17.507Z,100803.27
2024-05-09T17:10:47.755Z,100802.22
2024-05-09T17:13:17.187Z,100802.34
2024-05-09T17:15:46.246Z,100800.67
2024-05-09T17:18:15.926Z,100805.46
2024-05-09T17:20:45.183Z,100801.21
2024-05-09T17:23:14.592Z,100802.44
2024-05-09T17:25:43.674Z,100800.41
2024-05-09T17:28:13.131Z,100798.70
2024-05-09T17:30:43.096Z,100799.44
2024-05-09T17:33:13.108Z,100795.79
2024-05-09T17:35:44.909Z,100788.87
2024-05-09T17:38:14.033Z,100790.17
2024-05-09T17:40:43.088Z,100792.13
2024-05-09T17:43:12.166Z,100788.94
2024-05-09T17:45:42.328Z,100790.36
2024-05-09T17:48:12.396Z,100790.58
2024-05-09T17:50:42.224Z,100788.19
2024-05-09T17:53:11.576Z,100786.69
2024-05-09T17:55:41.222Z,100790.66
2024-05-09T17:58:11.580Z,100786.80
2024-05-09T18:00:42.585Z,100788.71
2024-05-09T18:03:13.365Z,100782.86
2024-05-09T18:05:45.191Z,100781.69
2024-05-09T18:08:14.693Z,100781.26
2024-05-09T18:10:43.947Z,100781.56
2024-05-09T18:13:13.754Z,100782.02
2024-05-09T18:15:44.340Z,100780.15
2024-05-09T18:18:13.790Z,100779.98
2024-05-09T18:20:45.548Z,100781.27
2024-05-09T18:23:17.753Z,100780.92
2024-05-09T18:25:48.427Z,100783.98
2024-05-09T18:28:17.857Z,100784.65
2024-05-09T18:30:47.007Z,100784.19
2024-05-09T18:33:16.275Z,100789.11
2024-05-09T18:35:45.828Z,100790.10
2024-05-09T18:38:14.872Z,100793.24
2024-05-09T18:40:46.220Z,100791.38
2024-05-09T18:43:17.676Z,100790.93
2024-05-09T18:45:47.478Z,100791.55
2024-05-09T18:48:16.632Z,100795.09
2024-05-09T18:50:45.621Z,100795.62
2024-05-09T18:53:15.363Z,100797.31
2024-05-09T18:55:44.346Z,100799.96
2024-05-09T18:58:13.291Z,100801.15
2024-05-09T19:00:45.376Z,100802.15
2024-05-09T19:03:16.195Z,100802.46
2024-05-09T19:05:46.663Z,100805.96
2024-05-09T19:08:16.297Z,100805.95
2024-05-09T19:10:45.868Z,100805.91
2024-05-09T19:13:15.842Z,100804.95
2024-05-09T19:15:44.992Z,100808.21
2024-05-09T19:18:15.079Z,100809.20
2024-05-09T19:20:44.675Z,100807.94
2024-05-09T19:23:14.222Z,100805.37
2024-05-09T19:25:43.019Z,100802.16
2024-05-09T19:28:12.021Z,100803.16
2024-05-09T19:30:42.715Z,100801.35
2024-05-09T19:33:13.573Z,100799.50
2024-05-09T19:35:43.619Z,100802.36
2024-05-09T19:38:13.231Z,100803.98
2024-05-09T19:40:42.432Z,100802.00
2024-05-09T19:43:11.538Z,100803.50
2024-05-09T19:45:40.479Z,100808.88
2024-05-09T19:48:10.258Z,100806.63
2024-05-09T19:50:43.275Z,100803.56
2024-05-09T19:53:15.212Z,100802.58
2024-05-09T19:55:44.595Z,100802.58
2024-05-09T19:58:13.968Z,100803.13
2024-05-09T20:00:44.470Z,100804.92
2024-05-09T20:03:15.528Z,100803.98
2024-05-09T20:05:46.641Z,100807.01
2024-05-09T20:08:17.354Z,100810.66
2024-05-09T20:10:46.299Z,100806.33
2024-05-09T20:13:15.381Z,100807.18
2024-05-09T20:15:44.349Z,100806.14
2024-05-09T20:18:13.491Z,100805.41
2024-05-09T20:20:44.645Z,100802.16
2024-05-09T20:23:14.616Z,100801.48
2024-05-09T20:25:43.522Z,100806.05
2024-05-09T20:28:12.591Z,100804.53
2024-05-09T20:30:42.334Z,100802.55
2024-05-09T20:33:12.433Z,100803.25
2024-05-09T20:35:41.688Z,100806.04
2024-05-09T20:38:10.756Z,100805.29
2024-05-09T20:40:40.285Z,100802.93
2024-05-09T20:43:10.713Z,100798.45
2024-05-09T20:45:40.616Z,100801.15
2024-05-09T20:48:10.660Z,100798.86
2024-05-09T20:50:42.335Z,100800.23
2024-05-09T20:53:14.012Z,100795.83
2024-05-09T20:55:44.617Z,100799.80
2024-05-09T20:58:14.277Z,100798.86
2024-05-09T21:00:45.570Z,100797.96
2024-05-09T21:03:16.890Z,100798.73
2024-05-09T21:05:47.587Z,100797.44
2024-05-09T21:08:17.146Z,100793.61
2024-05-09T21:10:46.417Z,100792.30
2024-05-09T21:13:15.492Z,100794.40
2024-05-09T21:15:44.592Z,100795.64
2024-05-09T21:18:13.671Z,100791.95
2024-05-09T21:20:42.718Z,100790.01
2024-05-09T21:23:11.433Z,100791.60
2024-05-09T21:25:40.572Z,100792.48
2024-05-09T21:28:09.658Z,100790.71
2024-05-09T21:30:42.272Z,100790.10
2024-05-09T21:33:14.081Z,100789.68
2024-05-09T21:35:44.923Z,100785.18
2024-05-09T21:38:14.998Z,100782.67
2024-05-09T21:40:44.775Z,100784.95
2024-05-09T21:43:14.405Z,100782.77
2024-05-09T21:45:43.794Z,100781.55
2024-05-09T21:48:13.249Z,100782.70
2024-05-09T21:50:42.835Z,100780.95
2024-05-09T21:53:13.387Z,100783.41
2024-05-09T21:55:42.899Z,100783.76
2024-05-09T21:58:13.436Z,100780.54
2024-05-09T22:00:44.686Z,100778.19
2024-05-09T22:03:14.886Z,100779.41
2024-05-09T22:05:44.770Z,100777.31
2024-05-09T22:08:14.535Z,100776.73
2024-05-09T22:10:43.755Z,100778.06
2024-05-09T22:13:12.653Z,100776.52
2024-05-09T22:15:41.888Z,100774.98
2024-05-09T22:18:12.156Z,100772.92
2024-05-09T22:20:43.072Z,100773.80
2024-05-09T22:23:13.296Z,100775.05
2024-05-09T22:25:42.477Z,100771.17
2024-05-09T22:28:14.418Z,100771.77
2024-05-09T22:30:45.003Z,100770.77
2024-05-09T22:33:14.218Z,100767.46
2024-05-09T22:35:43.253Z,100767.56
2024-05-09T22:38:12.195Z,100771.98
2024-05-09T22:40:47.446Z,100776.10
2024-05-09T22:43:19.969Z,100789.45
2024-05-09T22:45:49.636Z,100798.69
2024-05-09T22:48:19.681Z,100788.45
2024-05-09T22:50:48.936Z,100792.77
2024-05-09T22:53:17.893Z,100789.18
2024-05-09T22:55:46.857Z,100785.50
2024-05-09T22:58:15.961Z,100783.68
2024-05-09T23:00:45.074Z,100786.13
2024-05-09T23:03:15.821Z,100789.95
2024-05-09T23:05:45.568Z,100779.87
2024-05-09T23:08:14.393Z,100774.24
2024-05-09T23:10:43.433Z,100775.60
2024-05-09T23:13:12.607Z,100774.77
2024-05-09T23:15:41.848Z,100773.02
2024-05-09T23:18:10.862Z,100764.89
2024-05-09T23:20:40.381Z,100762.42
2024-05-09T23:23:11.528Z,100762.16
2024-05-09T23:25:41.985Z,100759.77
2024-05-09T23:28:11.697Z,100757.58
2024-05-09T23:30:41.955Z,100758.58
2024-05-09T23:33:13.164Z,100757.69
2024-05-09T23:35:43.371Z,100754.98
2024-05-09T23:38:12.716Z,100749.48
2024-05-09T23:40:43.074Z,100747.30
2024-05-09T23:43:13.655Z,100747.00
2024-05-09T23:45:43.138Z,100741.59
2024-05-09T23:48:12.227Z,100738.50
2024-05-09T23:50:41.798Z,100741.00
2024-05-09T23:53:11.372Z,100741.05
2024-05-09T23:55:40.503Z,100742.02
2024-05-09T23:58:11.124Z,100743.88
